22ème Rallye Terre des Causses
Championnat de France des Rallyes sur Terre
1 1 CUOQ Jean-Marie/GRANDEMANGE Marielle Citroën C4 WRC FA 8W 29:37,2 1
2 3 MAURIN Julien/URAL Olivier Citroën DS3 WRC A 8W 29:56,6 +00:19,4 +00:19,4 1
3 4 DURBEC Thibault/RENUCCI Jacques-Julien Citroën DS3 WRC A 8W 30:47,2 +01:10,0 +00:50,6 1
4 11 GILBERT Quentin/JAMOUL Renaud Skoda Fabia R5 R 5 31:10,5 +01:33,3 +00:23,3
5 14 FALCO Jean-Marc/BOUERI Jonathan Peugeot 208 T16 R 5 31:11,9 +01:34,7 +00:01,4 1
6 18 PONS Xavier/ORIOL Julia Peugeot 208 T16 R 5 31:22,8 +01:45,6 +00:10,9
7 12 BERFA Jordan/AUGUSTIN Damien HUYNDAI i20 R5 R 5 31:29,1 +01:51,9 +00:06,3 1
8 9 FERAUD Cyrille/DUCHEMIN Aymeric Citroën C4 WRC FA 8W 32:34,9 +02:57,7 +01:05,8 1
9 5 CHAYNES Gary/TRIBOUT Christian Citroën C4 WRC FA 8W 32:52,3 +03:15,1 +00:17,4 1
10 16 PETIT Jean-Eric/MAURIN Mathieu Ford Fiesta R5 R 5 32:57,4 +03:20,2 +00:05,1 1
11 56 DE MEVIUS Guillaume/LOUKA Louis Peugeot 208 VTI R 2 33:17,0 +03:39,8 +00:19,6 3
12 54 PELLIER Laurent/NEYRET-GIGOT Benoît Peugeot 208 VTI R 2 33:19,9 +03:42,7 +00:02,9 3
13 38 MOREL Jean-Luc/GIDEL Philippe Subaru Impreza WRX FN 4 33:21,4 +03:44,2 +00:01,5
14 19 MORDACQ Arnaud/RATIER Marie-Noelle Mitsubishi Lancer Evo9 N 4 33:23,8 +03:46,6 +00:02,4 1
15 40 MARTI Christian/LAVIALE Jean-Marc Mitsubishi Lancer Evo9 N 4 33:26,0 +03:48,8 +00:02,2 1
16 59 RIBAUD Quentin/BALME Benoît Peugeot 208 VTI R 2 33:27,7 +03:50,5 +00:01,7 1 2 3
17 7 CLOT Charles/LEON Thierry Ford Fiesta WRC A 8W 33:31,4 +03:54,2 +00:03,7 1
18 60 LARIO Taisko/RYYNANEN Sami Peugeot 208 VTI R 2 33:36,4 +03:59,2 +00:05,0 3
19 61 GAGO Diogo/DEL BARRIO GARCIA Rodolfo Peugeot 208 VTI R 2 33:40,1 +04:02,9 +00:03,7 3
20 57 LLARENA Efren/FERNANDEZ Sara Peugeot 208 VTI R 2 33:45,0 +04:07,8 +00:04,9 3
21 6 ROUSSET Eric/GOSSET Jean-David Citroën Xsara WRC FA 8W 33:49,8 +04:12,6 +00:04,8
22 50 VEYRARD Didier/TARDY Vincent Subaru Impreza STI FN 4 33:51,0 +04:13,8 +00:01,2
23 37 DESANGLES Yanis/THERON Nicolas Subaru Impreza WRX R 4 33:58,6 +04:21,4 +00:07,6
24 8 RAOUX Jean-Michel/MAGAT Laurent Citroën DS3 WRC A 8W 33:58,8 +04:21,6 +00:00,2 1
25 27 TARDY Guillaume/CHOUDEY Marc-Emilien Subaru Impreza FA 8 34:00,3 +04:23,1 +00:01,5
26 36 SALIN Daniel/SALIN Brigitte Subaru Impreza WRX R 4 34:02,0 +04:24,8 +00:01,7
27 62 SAHILA Aki/SUORSA Rami Peugeot 208 VTI R 2 34:02,8 +04:25,6 +00:00,8 3
28 39 BENIER Thomas/PRASSE Cédric Subaru Impreza WRX N 4 34:08,3 +04:31,1 +00:05,5 1
29 21 GIRAUD Emmanuel/GIRAUD Grégory Mitsubishi Lancer Evo8 FA 8 34:14,1 +04:36,9 +00:05,8
30 17 FRAU Richard/GASTINEL Jean-Francois Ford Fiesta R5 R 5 34:18,4 +04:41,2 +00:04,3 1
31 15 BESSON Jean-Pascal/ROISSAC Patrice Skoda Fabia R5 R 5 34:23,1 +04:45,9 +00:04,7 1
32 10 "PIANO"/COTTU Paolo Subaru Impreza WRC FA 8W 34:27,2 +04:50,0 +00:04,1
33 20 GAIDOZ Hervé/RICHARD François Subaru Impreza WRX FA 8 34:37,3 +05:00,1 +00:10,1 1
34 30 CHIAVARO Daniel/DUPANLOUP Alexandra Subaru Impreza Sti FA 8 34:43,1 +05:05,9 +00:05,8
35 63 WAGEMANS Joachim/DU PAN Anton Peugeot 208 VTI R 2 34:47,3 +05:10,1 +00:04,2 3
36 43 PUEL Gérard/PUEL Caroline Mitsubishi Lancer Evo8 FN 4 34:51,7 +05:14,5 +00:04,4
37 42 CONDAMINES Florian/DELMAS Cyril Subaru Impreza N 4 34:52,5 +05:15,3 +00:00,8
38 70 PINHEIRO Karl-Alexandre/LE FLOCH Franck Peugeot 208 VTI R 2 34:53,1 +05:15,9 +00:00,6 3
39 72 TAVENEAU Sam/POINT Clément Peugeot 208 VTI R 2 34:59,1 +05:21,9 +00:06,0 3
40 41 FONTAINE Fabien/FONTAINE Bastien Mitsubishi Lancer Evo5 FN 4 34:59,8 +05:22,6 +00:00,7
41 83 MARCHAL Eddy/JOLE Damien Citroën Saxo T4 FA 6K 35:03,0 +05:25,8 +00:03,2 1
42 65 BOSCH Florentin/LAZZARINI Jean-Paul Peugeot 208 VTI R 2 35:03,9 +05:26,7 +00:00,9 3
43 75 VENTURINI Henri/CORONA Fabrice Peugeot 208 VTI R 2 35:04,7 +05:27,5 +00:00,8 3
44 53 VITAL Jean-Pierre/DECOUZON Pierre Citroën Saxo VTS F2 13 35:09,0 +05:31,8 +00:04,3 1 2
45 64 HAIGH-SMITH Ashley/BURNS Niall Peugeot 208 VTI R 2 35:11,4 +05:34,2 +00:02,4 3
46 23 FILLAYRE Jacques/DERRE Cyril Mitsubishi Lancer Evo4 FA 8 35:15,9 +05:38,7 +00:04,5
47 81 VIALLE Lilian/GHIRARDELLO Manuel Renault Clio R3 R 3 35:19,0 +05:41,8 +00:03,1 1 2
48 52 JULIA David/AUBERTIN Ludovic Peugeot 206 Rc F2 14 35:23,0 +05:45,8 +00:04,0 1 2
49 44 GUIGNARD Eric/MEFFRE Didier Subaru Impreza N 4 35:26,0 +05:48,8 +00:03,0
50 124 MASCLAUX Arnaud/CORMERAIS Loïc Renault Clio Ragnotti F2 14 35:29,8 +05:52,6 +00:03,8 1 2
51 116 RAYNAUD Gabriel/JULIEN William Seat Ibiza GTI F2 14 35:38,3 +06:01,1 +00:08,5 1 2
52 87 SALGUES Gilles/MOUYSSET Jérôme Citroën Saxo T4 FA 6K 35:38,9 +06:01,7 +00:00,6
53 48 PRIOLO Laurent/DALMAS Yannick Mitsubishi Lancer Evo9 N 4 35:42,5 +06:05,3 +00:03,6
54 79 JOUINES Rémi/BONICEL Adrien Peugeot 207 Rc R 3 35:44,4 +06:07,2 +00:01,9
55 25 GIORDANENGO Jimmy/DELAMOTTE Alexis Mitsubishi Lancer Evo7 FA 8 35:45,1 +06:07,9 +00:00,7
56 46 LOPEZ Yannick/LOPEZ Brice Subaru Impreza WRX N 4 35:52,3 +06:15,1 +00:07,2
57 94 JOUINES Jean/CHABBERT Martin Opel Adam Rally R FR2 35:54,0 +06:16,8 +00:01,7
58 86 MARCOBAL Thierry/MARCOBAL-BASTIDE Cantin Citroën Saxo T4 FA 6K 35:54,5 +06:17,3 +00:00,5
59 73 MOLLARD Alexandre/EYMIN PETOT Nicolas Peugeot 208 VTI R 2 35:54,8 +06:17,6 +00:00,3 3
60 95 GOUY Quentin/THILLIEZ Quentin Citroën C2 R2 R 2 35:57,3 +06:20,1 +00:02,5
61 69 AUTIERO Matthieu/ANDREU Axel Peugeot 208 VTI R 2 36:22,7 +06:45,5 +00:25,4 3
62 132 SABATIER Florent/SANTIAGO Thomas Peugeot 106 S16 FA 6 36:23,1 +06:45,9 +00:00,4 1 2
63 80 GUINCHARD Emmanuel/CHATELAIN Mickaël Peugeot 207 Rc R 3 36:32,8 +06:55,6 +00:09,7
64 76 COLNEY Thierry/FORTMANN Patrick Citroën DS3 R3 R 3 36:35,5 +06:58,3 +00:02,7 1 2
65 113 BLANCK Lionel/BLANCK Arnaud Peugeot 206 Rc F2 14 36:42,0 +07:04,8 +00:06,5
66 99 FOTIA Anthony/MILLET Kévin Ford Fiesta R2 R 2 36:45,0 +07:07,8 +00:03,0
67 90 COLOMBE Geoffroy/FABREGUE Régis Peugeot 206 XS FA 6K 36:46,0 +07:08,8 +00:01,0
68 71 RAMBAUD Sébastien/RICOU Brice Peugeot 208 VTI R 2 36:49,5 +07:12,3 +00:03,5 3
69 102 SOUFFEZ Frédéric/PRUVOST Astrid Peugeot 206 Rc FA 7 36:51,6 +07:14,4 +00:02,1 1 2
70 125 BELLIARDO Daniel/BRAQUET Jean-Baptiste Peugeot 306 S16 FN 3 36:57,8 +07:20,6 +00:06,2
71 89 CREPIN Maude/FRANCOIS Léa Citroën Saxo T4 FA 6K 36:58,5 +07:21,3 +00:00,7
72 98 DEFANTE Romain/TEMPIER Romain Ford Fiesta R2 R 2 37:04,9 +07:27,7 +00:06,4
73 85 GRIMAUD Roger/GRIMAUD Laurent Citroën Saxo T4 FA 6K 37:05,3 +07:28,1 +00:00,4
74 91 BERTON Charlotte/TAILLANDIER Thomas Citroën Saxo T4 FA 6K 37:07,1 +07:29,9 +00:01,8
75 35 MORDACQ Laurent/MORTIER Hervé Mitsubishi Lancer Evo9 R 4 37:07,9 +07:30,7 +00:00,8 1
76 97 MARGAILLAN Hugo/POUJOL Sébastien Ford Fiesta R2 R 2 37:19,5 +07:42,3 +00:11,6
77 28 GIL Stéphane/MORGET Arnaud Subaru Impreza WRX FA 8 37:24,5 +07:47,3 +00:05,0
78 96 PUVERIC Gilles/LE BORGNE Didier Peugeot 208 VTI R 2 37:27,7 +07:50,5 +00:03,2
79 111 PILLARD Cédric/NOHARET Laurent Peugeot 206 Rc F2 14 37:28,8 +07:51,6 +00:01,1 1 2
80 117 ROUCOULY Mathieu/GILHODES Jean-Louis Peugeot 309 GTI 16S F2 14 37:41,8 +08:04,6 +00:13,0
81 77 DAZY Jean-Pierre/LOIZEAUX Didier Renault Clio R3 R 3 37:44,4 +08:07,2 +00:02,6 1 2
82 107 ROCHER Arnaud/PAULHAN Sabine Renault Clio RS FA 7 37:45,0 +08:07,8 +00:00,6
83 120 RIEU Vincent/DEIXONNE Charles Renault Clio Ragnotti F2 14 37:46,2 +08:09,0 +00:01,2
84 115 MORARD Philippe/GROLIER Cédric Citroën ZX 16V F2 14 37:48,2 +08:11,0 +00:02,0
85 88 QUARROZ Damien/VOLPI Cécile Citroën Saxo T4 FA 6K 37:48,6 +08:11,4 +00:00,4
86 149 RICHAUD Pascal/SENDJAKEDINE Mikael Suzuki Swift Sport FN 2 37:48,6 +08:11,4 1 2
87 138 CAYLA Corentin/DUMAS Bastien Citroën Saxo VTS F2 13 38:00,0 +08:22,8 +00:11,4
88 92 BRENIAUX Sébastien/JACQUES Anthony Peugeot 206 XS FA 6K 38:05,1 +08:27,9 +00:05,1
89 33 ROUGIER Régis/SOGNO Emilien Subaru Impreza WRX FA 8 38:06,0 +08:28,8 +00:00,9
90 145 BRISSON Eddy/MASSON Pascal Suzuki Swift FN 2 38:22,6 +08:45,4 +00:16,6
91 127 LESCURE Philippe/ESCAICH Bertrand Peugeot 306 S16 FN 3 38:22,7 +08:45,5 +00:00,1
92 67 JAMET Jérémy/SECACHE Michaël Peugeot 208 VTI R 2 38:23,0 +08:45,8 +00:00,3 3
93 112 REGORD Hervé/REGORD Camille Peugeot 205 GTI F2 14 38:30,0 +08:52,8 +00:07,0 1 2
94 135 RAMEL Olivier/BODENMANN Jacques-Victor Peugeot 106 GT FA 6 38:37,0 +08:59,8 +00:07,0
95 45 ECK Jean-Luc/ECK Aurélien Subaru Impreza N 4 38:38,9 +09:01,7 +00:01,9
96 78 BOUCHET Guillaume/BLAMPEY Fabien Peugeot 207 Rc R 3 38:41,4 +09:04,2 +00:02,5
97 134 RALITE Christophe/ABBAL Marie Peugeot 106 S16 FA 6 38:46,4 +09:09,2 +00:05,0
98 126 VANTILLARD Jean-Marc/DARRAS Pascaline Peugeot 206 Rc FN 3 38:47,0 +09:09,8 +00:00,6
99 136 FOURNIER Nicolas/VATTEAU Kévin Peugeot 206 XS F2 13 39:02,8 +09:25,6 +00:15,8
100 146 DOLGOPYATOFF Damien/FRANCOIS Solene Suzuki Swift FN 2 39:54,6 +10:17,4 +00:51,8
101 142 BRENGUES Jean-Marie/BRENGUES Mélanie Peugeot 205 GTI F2 13 40:10,5 +10:33,3 +00:15,9
102 106 GELLUSSEAU Luc/DEJOUX Charly Peugeot 306 S16 FA 7 40:10,7 +10:33,5 +00:00,2
103 151 ROCHE Ivan/GREVOT Florian Peugeot 106 XSI F2 12 40:24,6 +10:47,4 +00:13,9 1 2
104 139 GELY Michel/VALENTIN Cédric Peugeot 206 XS F2 13 40:30,4 +10:53,2 +00:05,8
105 129 GAGNEUR Hervé/LEIBENGUTH Christophe Peugeot 306 S16 FN 3 40:41,0 +11:03,8 +00:10,6
106 148 LATIEZE Yvan/GOUY Cindy Peugeot 106 S16 FN 2 40:46,4 +11:09,2 +00:05,4
107 152 VUITTENEZ Victorien/COTE COLISSON Maxime Peugeot 106 XSI FN 1 40:54,2 +11:17,0 +00:07,8
108 47 CAMPAGNOLI Gabriele/ARENA Nicola Subaru Impreza WRX N 4 40:55,8 +11:18,6 +00:01,6
109 140 VAYSSE Adrien/LAURENS Clément Peugeot 106 S16 F2 13 40:56,5 +11:19,3 +00:00,7
110 150 VAILLE Mickaël/SAVA-LOPEZ Sabrina Peugeot 205 GTI FN 2 41:05,1 +11:27,9 +00:08,6
111 104 FRELAUT Yohann/CASSAGNADE Pascal Peugeot 206 Rc FA 7 41:30,7 +11:53,5 +00:25,6
112 153 CEUGNET Sébastien/LUCON Pascal Peugeot 106 XSI FN 1 41:46,3 +12:09,1 +00:15,6
113 105 GAUTHIER Bernard/BLANQUET Muriel Peugeot 306 S16 FA 7 42:09,1 +12:31,9 +00:22,8
114 108 GUILLON Jean-Luc/GUILLON Thibault Peugeot 206 GT FA 7 42:12,2 +12:35,0 +00:03,1
115 137 RAKOTOMALALA Andry/GORGET Chloé Peugeot 106 S16 F2 13 42:25,0 +12:47,8 +00:12,8
116 130 RESSOUCHE Charlotte/BARDOUX Pauline Ford Fiesta ST N 3 42:38,6 +13:01,4 +00:13,6
117 26 GLEY Jean-Pierre/AUBANEL Aurélien B.M.W. 325 iX FA 8 43:08,7 +13:31,5 +00:30,1
118 154 BES Yves/LE PICHON Christelle Peugeot 106 XR F2 11 43:32,3 +13:55,1 +00:23,6
119 31 MARON-GIRARD Alain/GRENIER Bernard Mitsubishi Lancer Evo9 FA 8 43:54,0 +14:16,8 +00:21,7
120 141 PICARD Erick/PONTILLE Hervé Dacia Logan F2 13 44:39,1 +15:01,9 +00:45,1
121 147 DI PAOLO Alain/MORILLON Frederika Peugeot 106 S16 FN 2 45:43,8 +16:06,6 +01:04,7
122 155 SOUBIROUX Vincent/VIGUIE Florian Renault Clio F2 11 46:39,4 +17:02,2 +00:55,6
123 144 TODESCHINI Florent/PORCHERON Giovanni Dacia Logan F2 13 48:42,0 +19:04,8 +02:02,6
124 119 MOULIN François/BONNET Dorine Renault Clio RS F2 14 53:12,2 +23:35,0 +04:30,2
125 103 TEVELLE Cédric/FACCIO Alexandra Peugeot 206 Rc FA 7 57:44,6 +28:07,4 +04:32,4
Clt Equipage Voiture Gr/Cl Temps Ecart 1er Ecart préc. Catégories
Commentaires: © PatricK Soft  
(Temps forfaitaires=couleur bleue)
Classés:125

Epreuve: Groupe: Catégorie:

 
Retour
Classement après ES4-Loupiac (9.000 km)